YPPD/PHE METAR and TAF weather

Enter ICAO airport designator
Station Type Date Time Source
YPPD METAR 2022/12/04 12:00 UTC NOAA

YPPD 041200Z AUTO 27013KT 9999 // NCD 31/17 Q1006 RF00.0/000.0


Station Type Date Time Source
YPPD Decoded METAR 2022/12/04 12:00 UTC NOAA

Port Hedland Pardoo, Australia (YPPD) 20-06S 119-34E 10M
Dec 04, 2022 - 07:00 AM EST / 2022.12.04 1200 UTC
Wind: from the W (270 degrees) at 15 MPH (13 KT):0
Visibility: greater than 7 mile(s):0
Temperature: 87 F (31 C)
Dew Point: 62 F (17 C)
Relative Humidity: 43%
Pressure (altimeter): 29.71 in. Hg (1006 hPa)
ob: YPPD 041200Z AUTO 27013KT 9999 // NCD 31/17 Q1006 RF00.0/000.0
cycle: 12

Station Type Date Time Source
YPPD TAF 2022/12/04 12:40 UTC NOAA

TAF
AMD YPPD 041138Z 0412/0512 26011KT CAVOK
FM050300 30019KT CAVOK

Example: see airport list